Time;durP1;ratioP1;P1;durP2;ratioP2;P2;SDS_P1;SDS_P2;PMS_P1;PMS_P2;Temp;Humidity;BMP_temperature;BMP_pressure;BME280_temperature;BME280_humidity;BME280_pressure;Samples;Min_cycle;Max_cycle;Signal;HPM_P1;HPM_P2
2022/10/27 00:00:40;;;;;;;8.30;6.00;;;12.90;99.90;;;;;;4973771;28;20435;-64
2022/10/27 00:03:08;;;;;;;10.70;6.17;;;12.90;99.90;;;;;;4974703;28;20467;-64
2022/10/27 00:05:33;;;;;;;6.37;5.77;;;12.80;99.90;;;;;;4974089;28;20439;-64
2022/10/27 00:07:59;;;;;;;12.47;6.23;;;12.80;99.90;;;;;;4974288;28;20435;-64
2022/10/27 00:10:24;;;;;;;12.97;6.83;;;12.80;99.90;;;;;;4974119;28;20179;-64
2022/10/27 00:12:50;;;;;;;12.80;7.63;;;12.80;99.90;;;;;;4973299;28;20275;-64
2022/10/27 00:15:15;;;;;;;20.57;12.30;;;12.80;99.90;;;;;;4972978;28;20658;-63
2022/10/27 00:17:41;;;;;;;19.30;10.60;;;12.80;99.90;;;;;;4974621;28;20650;-64
2022/10/27 00:20:08;;;;;;;12.73;7.57;;;12.80;99.90;;;;;;4972858;28;20184;-63
2022/10/27 00:22:33;;;;;;;15.60;8.97;;;12.80;99.90;;;;;;4967560;28;20230;-63
2022/10/27 00:24:59;;;;;;;16.40;11.53;;;12.70;99.90;;;;;;4974349;28;20518;-64
2022/10/27 00:27:25;;;;;;;21.33;11.50;;;12.60;99.90;;;;;;4973261;28;20703;-64
2022/10/27 00:29:51;;;;;;;15.17;8.47;;;12.60;99.90;;;;;;4973696;28;20188;-64
2022/10/27 00:32:16;;;;;;;15.10;8.93;;;12.60;99.90;;;;;;4974121;28;20570;-64
2022/10/27 00:34:42;;;;;;;11.30;7.80;;;12.60;99.90;;;;;;4972593;28;20942;-64
2022/10/27 00:37:07;;;;;;;13.57;8.60;;;12.50;99.90;;;;;;4973398;28;20189;-64
2022/10/27 00:39:33;;;;;;;15.70;8.50;;;12.50;99.90;;;;;;4972115;28;20172;-64
2022/10/27 00:41:58;;;;;;;9.20;7.70;;;12.50;99.90;;;;;;4973909;28;20246;-64
2022/10/27 00:44:34;;;;;;;13.17;8.37;;;12.50;99.90;;;;;;4969871;28;20228;-64
2022/10/27 00:47:14;;;;;;;10.90;8.03;;;12.40;99.90;;;;;;4971130;28;20188;-64
2022/10/27 00:49:59;;;;;;;7.80;6.20;;;12.40;99.90;;;;;;4972255;28;20443;-64
2022/10/27 00:52:38;;;;;;;15.93;7.87;;;12.40;99.90;;;;;;4965136;28;20964;-64
2022/10/27 00:55:14;;;;;;;12.03;7.00;;;12.40;99.90;;;;;;4972890;28;20447;-64
2022/10/27 00:57:42;;;;;;;8.17;6.50;;;12.40;99.90;;;;;;4972598;28;20957;-64
2022/10/27 01:00:08;;;;;;;11.60;6.90;;;12.40;99.90;;;;;;4971900;28;20983;-64
2022/10/27 01:02:35;;;;;;;11.50;7.20;;;12.40;99.90;;;;;;4973523;28;20432;-64
2022/10/27 01:05:05;;;;;;;13.57;6.80;;;12.30;99.90;;;;;;4972634;28;20443;-64
2022/10/27 01:07:31;;;;;;;13.87;7.10;;;12.30;99.90;;;;;;4972864;28;20510;-64
2022/10/27 01:09:58;;;;;;;15.73;7.83;;;12.40;99.90;;;;;;4972829;28;20523;-64
2022/10/27 01:12:23;;;;;;;8.07;7.27;;;12.40;99.90;;;;;;4971131;28;20451;-64
2022/10/27 01:14:49;;;;;;;13.93;7.60;;;12.40;99.90;;;;;;4972540;28;20486;-64
2022/10/27 01:17:40;;;;;;;10.87;7.60;;;12.30;99.90;;;;;;4973135;28;20267;-64
2022/10/27 01:20:27;;;;;;;10.87;8.00;;;12.40;99.90;;;;;;4969756;28;20554;-64
2022/10/27 01:23:11;;;;;;;9.10;7.47;;;12.40;99.90;;;;;;4969652;28;20451;-64
2022/10/27 01:25:37;;;;;;;10.50;7.70;;;12.30;99.90;;;;;;4969607;28;20438;-64
2022/10/27 01:28:32;;;;;;;13.43;6.97;;;12.30;99.90;;;;;;4963183;28;20436;-64
2022/10/27 01:31:09;;;;;;;9.33;6.27;;;12.20;99.90;;;;;;4972416;28;20188;-64
2022/10/27 01:33:57;;;;;;;12.50;7.47;;;12.20;99.90;;;;;;4970972;28;20882;-64
2022/10/27 01:36:25;;;;;;;7.40;6.60;;;12.10;99.90;;;;;;4968449;28;20439;-64
2022/10/27 01:38:59;;;;;;;10.57;7.80;;;12.10;99.90;;;;;;4964820;28;20446;-64
2022/10/27 01:41:38;;;;;;;12.30;7.67;;;12.10;99.90;;;;;;4970921;28;20436;-64
2022/10/27 01:44:10;;;;;;;12.60;7.30;;;12.10;99.90;;;;;;4971763;28;20470;-64
2022/10/27 01:46:35;;;;;;;11.10;7.60;;;12.10;99.90;;;;;;4972445;28;20514;-63
2022/10/27 01:49:04;;;;;;;14.60;10.43;;;12.10;99.90;;;;;;4972021;28;20571;-64
2022/10/27 01:51:30;;;;;;;22.47;7.60;;;12.10;99.90;;;;;;4972669;28;20307;-64
2022/10/27 01:53:56;;;;;;;13.30;8.67;;;12.10;99.90;;;;;;4971439;28;20550;-64
2022/10/27 01:56:41;;;;;;;13.10;8.43;;;12.00;99.90;;;;;;4968369;28;20188;-64
2022/10/27 01:59:20;;;;;;;14.23;7.27;;;12.00;99.90;;;;;;4970355;28;20179;-64
2022/10/27 02:02:17;;;;;;;12.53;8.20;;;11.90;99.90;;;;;;4970219;28;20463;-64
2022/10/27 02:04:54;;;;;;;9.37;8.37;;;11.90;99.90;;;;;;4967243;28;20459;-64
2022/10/27 02:07:23;;;;;;;15.60;8.20;;;11.90;99.90;;;;;;4965949;28;20442;-64
2022/10/27 02:09:58;;;;;;;9.10;7.87;;;11.90;99.90;;;;;;4971368;28;20490;-64
2022/10/27 02:12:30;;;;;;;15.47;9.60;;;11.90;99.90;;;;;;4960672;28;20542;-64
2022/10/27 02:14:58;;;;;;;8.90;7.80;;;11.90;99.90;;;;;;4971860;28;20481;-64
2022/10/27 02:17:29;;;;;;;13.67;8.97;;;11.90;99.90;;;;;;4971898;28;20494;-65
2022/10/27 02:19:57;;;;;;;12.63;7.53;;;11.90;99.90;;;;;;4970974;28;20878;-64
2022/10/27 02:22:27;;;;;;;11.67;8.40;;;11.90;99.90;;;;;;4972126;28;20439;-64
2022/10/27 02:24:52;;;;;;;12.83;7.50;;;11.90;99.90;;;;;;4974342;28;20462;-64
2022/10/27 02:27:46;;;;;;;9.97;7.27;;;11.80;99.90;;;;;;4976563;28;20443;-64
2022/10/27 02:30:13;;;;;;;11.13;7.50;;;11.80;99.90;;;;;;4975788;28;20215;-64
2022/10/27 02:32:39;;;;;;;8.77;7.67;;;11.70;99.90;;;;;;4976836;28;20427;-64
2022/10/27 02:35:07;;;;;;;9.27;7.60;;;11.70;99.90;;;;;;4976052;28;20478;-64
2022/10/27 02:37:40;;;;;;;12.47;8.07;;;11.60;99.90;;;;;;4976365;28;20596;-65
2022/10/27 02:40:07;;;;;;;8.20;6.17;;;11.50;99.90;;;;;;4974414;28;20450;-64
2022/10/27 02:42:32;;;;;;;9.57;7.07;;;11.60;99.90;;;;;;4974734;28;20984;-64
2022/10/27 02:44:58;;;;;;;18.20;7.00;;;11.50;99.90;;;;;;4975881;28;20463;-64
2022/10/27 02:47:23;;;;;;;8.60;7.27;;;11.50;99.90;;;;;;4976190;28;20608;-64
2022/10/27 02:49:49;;;;;;;8.97;6.20;;;11.40;99.90;;;;;;4975075;28;20199;-64
2022/10/27 02:52:15;;;;;;;9.87;7.17;;;11.40;99.90;;;;;;4975206;28;20176;-63
2022/10/27 02:54:41;;;;;;;8.83;7.77;;;11.40;99.90;;;;;;4974415;28;20689;-65
2022/10/27 02:57:07;;;;;;;14.80;6.83;;;11.40;99.90;;;;;;4975688;28;20650;-63
2022/10/27 02:59:33;;;;;;;11.43;7.20;;;11.40;99.90;;;;;;4970006;28;20436;-63
2022/10/27 03:01:59;;;;;;;9.30;7.20;;;11.30;99.90;;;;;;4972522;28;20949;-63
2022/10/27 03:04:24;;;;;;;9.87;6.83;;;11.30;99.90;;;;;;4975410;28;20470;-65
2022/10/27 03:06:50;;;;;;;8.43;7.40;;;11.30;99.90;;;;;;4973804;28;20207;-64
2022/10/27 03:09:15;;;;;;;10.23;8.10;;;11.30;99.90;;;;;;4974078;28;20183;-64
2022/10/27 03:11:41;;;;;;;11.80;7.97;;;11.30;99.90;;;;;;4975274;28;20223;-63
2022/10/27 03:14:06;;;;;;;10.90;7.67;;;11.30;99.90;;;;;;4975348;28;20589;-64
2022/10/27 03:16:32;;;;;;;8.40;7.07;;;11.20;99.90;;;;;;4975257;28;20180;-64
2022/10/27 03:18:57;;;;;;;12.33;7.60;;;11.20;99.90;;;;;;4974602;28;20181;-64
2022/10/27 03:21:23;;;;;;;12.23;7.10;;;11.20;99.90;;;;;;4975592;28;20173;-64
2022/10/27 03:23:49;;;;;;;9.40;7.60;;;11.20;99.90;;;;;;4974666;28;20737;-64
2022/10/27 03:26:15;;;;;;;12.53;7.70;;;11.20;99.90;;;;;;4974925;28;20218;-64
2022/10/27 03:28:40;;;;;;;9.07;7.50;;;11.20;99.90;;;;;;4973997;28;20562;-64
2022/10/27 03:31:06;;;;;;;15.37;7.73;;;11.20;99.90;;;;;;4973897;28;20198;-63
2022/10/27 03:33:32;;;;;;;15.73;7.90;;;11.20;99.90;;;;;;4973367;28;20239;-64
2022/10/27 03:35:58;;;;;;;9.47;6.40;;;11.20;99.90;;;;;;4973384;28;20187;-64
2022/10/27 03:38:23;;;;;;;13.80;7.83;;;11.20;99.90;;;;;;4974950;28;20462;-64
2022/10/27 03:40:49;;;;;;;11.37;7.57;;;11.20;99.90;;;;;;4974874;28;20443;-64
2022/10/27 03:43:15;;;;;;;13.80;8.50;;;11.20;99.90;;;;;;4973174;28;20250;-64
2022/10/27 03:45:40;;;;;;;15.27;10.03;;;11.20;99.90;;;;;;4974791;28;20188;-64
2022/10/27 03:48:10;;;;;;;11.40;8.00;;;11.20;99.90;;;;;;4974288;28;20180;-64
2022/10/27 03:50:35;;;;;;;14.60;9.13;;;11.20;99.90;;;;;;4973656;28;20183;-64
2022/10/27 03:53:02;;;;;;;12.77;8.20;;;11.20;99.90;;;;;;4967247;28;20454;-64
2022/10/27 03:55:28;;;;;;;11.83;8.10;;;11.10;99.90;;;;;;4973373;28;20180;-64
2022/10/27 03:57:54;;;;;;;9.87;7.47;;;11.10;99.90;;;;;;4973616;28;20444;-64
2022/10/27 04:00:20;;;;;;;9.80;7.00;;;11.10;99.90;;;;;;4971108;28;20431;-63
2022/10/27 04:02:45;;;;;;;9.03;7.40;;;11.10;99.90;;;;;;4974274;28;20622;-64
2022/10/27 04:05:11;;;;;;;13.23;7.60;;;11.00;99.90;;;;;;4974004;28;20470;-64
2022/10/27 04:07:37;;;;;;;10.57;8.10;;;11.00;99.90;;;;;;4973718;28;20214;-63
2022/10/27 04:10:03;;;;;;;13.10;9.10;;;11.00;99.90;;;;;;4974323;28;20168;-64
2022/10/27 04:12:29;;;;;;;9.70;8.73;;;11.00;99.90;;;;;;4974317;28;20247;-64
2022/10/27 04:14:54;;;;;;;10.53;8.10;;;10.90;99.90;;;;;;4973625;28;20467;-64
2022/10/27 04:17:20;;;;;;;11.30;8.03;;;10.90;99.90;;;;;;4972117;28;20180;-64
2022/10/27 04:19:45;;;;;;;9.07;8.17;;;10.90;99.90;;;;;;4972491;28;20659;-64
2022/10/27 04:22:11;;;;;;;12.90;7.60;;;10.90;99.90;;;;;;4973263;28;20188;-64
2022/10/27 04:24:39;;;;;;;20.73;8.40;;;10.90;99.90;;;;;;4974065;28;20258;-64
2022/10/27 04:27:06;;;;;;;10.60;8.87;;;10.90;99.90;;;;;;4973241;28;20673;-63
2022/10/27 04:29:32;;;;;;;15.30;9.20;;;10.90;99.90;;;;;;4970973;28;20974;-64
2022/10/27 04:31:57;;;;;;;16.23;9.73;;;10.90;99.90;;;;;;4972952;28;20442;-64
2022/10/27 04:34:23;;;;;;;18.70;9.63;;;10.90;99.90;;;;;;4972341;28;20200;-64
2022/10/27 04:36:48;;;;;;;11.97;8.17;;;10.80;99.90;;;;;;4972175;28;20551;-64
2022/10/27 04:39:14;;;;;;;14.27;7.93;;;10.80;99.90;;;;;;4973695;28;20195;-64
2022/10/27 04:41:40;;;;;;;12.50;7.83;;;10.80;99.90;;;;;;4973856;28;20172;-63
2022/10/27 04:44:06;;;;;;;17.13;9.27;;;10.70;99.90;;;;;;4972403;28;20204;-65
2022/10/27 04:46:32;;;;;;;13.67;7.80;;;10.70;99.90;;;;;;4973335;28;20439;-64
2022/10/27 04:48:58;;;;;;;13.90;9.10;;;10.70;99.90;;;;;;4973011;28;20445;-64
2022/10/27 04:51:23;;;;;;;13.43;8.00;;;10.70;99.90;;;;;;4973174;28;20814;-64
2022/10/27 04:53:49;;;;;;;15.63;8.30;;;10.70;99.90;;;;;;4973219;28;20291;-64
2022/10/27 04:56:14;;;;;;;14.93;7.30;;;10.70;99.90;;;;;;4966475;28;21210;-64
2022/10/27 04:58:40;;;;;;;11.00;8.63;;;10.70;99.90;;;;;;4972801;28;20329;-63
2022/10/27 05:01:07;;;;;;;14.70;9.73;;;10.70;99.90;;;;;;4973365;28;20188;-64
2022/10/27 05:03:33;;;;;;;12.30;8.63;;;10.80;99.90;;;;;;4972678;28;20571;-64
2022/10/27 05:05:59;;;;;;;11.60;8.40;;;10.80;99.90;;;;;;4973135;28;20463;-65
2022/10/27 05:08:25;;;;;;;9.80;8.63;;;10.80;99.90;;;;;;4972646;28;20187;-64
2022/10/27 05:10:50;;;;;;;12.87;8.50;;;10.70;99.90;;;;;;4973375;28;20674;-64
2022/10/27 05:13:16;;;;;;;13.60;8.90;;;10.80;99.90;;;;;;4972639;28;20700;-64
2022/10/27 05:15:41;;;;;;;15.70;8.90;;;10.70;99.90;;;;;;4973086;28;20180;-64
2022/10/27 05:18:07;;;;;;;15.53;9.33;;;10.70;99.90;;;;;;4971472;28;20182;-64
2022/10/27 05:20:32;;;;;;;14.93;9.20;;;10.80;99.90;;;;;;4972791;28;20701;-64
2022/10/27 05:22:58;;;;;;;16.37;10.43;;;10.80;99.90;;;;;;4972199;28;20238;-64
2022/10/27 05:25:23;;;;;;;12.37;9.27;;;10.80;99.90;;;;;;4973537;28;20183;-64
2022/10/27 05:27:49;;;;;;;15.33;10.40;;;10.70;99.90;;;;;;4968073;28;20267;-63
2022/10/27 05:30:15;;;;;;;11.27;9.60;;;10.70;99.90;;;;;;4971878;28;20519;-64
2022/10/27 05:32:40;;;;;;;11.30;9.13;;;10.70;99.90;;;;;;4971192;28;20227;-64
2022/10/27 05:35:06;;;;;;;13.10;8.13;;;10.60;99.90;;;;;;4971648;28;20204;-64
2022/10/27 05:37:32;;;;;;;17.97;8.47;;;10.70;99.90;;;;;;4971636;28;20187;-64
2022/10/27 05:39:57;;;;;;;11.87;8.20;;;10.60;99.90;;;;;;4972115;28;20175;-64
2022/10/27 05:42:23;;;;;;;12.60;9.13;;;10.60;99.90;;;;;;4972768;28;20205;-64
2022/10/27 05:44:48;;;;;;;15.37;10.07;;;10.70;99.90;;;;;;4972188;28;20223;-63
2022/10/27 05:47:14;;;;;;;13.53;9.87;;;10.70;99.90;;;;;;4972144;28;20195;-64
2022/10/27 05:49:39;;;;;;;17.77;9.80;;;10.70;99.90;;;;;;4971604;28;20195;-63
2022/10/27 05:52:05;;;;;;;28.70;12.07;;;10.80;99.90;;;;;;4971536;28;20553;-64
2022/10/27 05:54:30;;;;;;;20.03;12.77;;;10.80;99.90;;;;;;4972606;28;20254;-64
2022/10/27 05:56:56;;;;;;;14.93;11.43;;;10.80;99.90;;;;;;4970749;28;20211;-64
2022/10/27 05:59:22;;;;;;;15.67;12.20;;;10.80;99.90;;;;;;4971645;28;20588;-64
2022/10/27 06:01:47;;;;;;;15.90;11.40;;;10.80;99.90;;;;;;4970857;28;20184;-63
2022/10/27 06:04:12;;;;;;;16.00;13.23;;;10.70;99.90;;;;;;4963556;28;20671;-64
2022/10/27 06:06:38;;;;;;;17.37;11.90;;;10.80;99.90;;;;;;4971928;28;20188;-64
2022/10/27 06:09:03;;;;;;;16.10;12.50;;;10.80;99.90;;;;;;4972198;28;20286;-65
2022/10/27 06:11:29;;;;;;;18.63;12.40;;;10.70;99.90;;;;;;4971176;28;20242;-65
2022/10/27 06:13:55;;;;;;;15.40;13.17;;;10.80;99.90;;;;;;4970830;28;20215;-65
2022/10/27 06:16:27;;;;;;;13.70;12.23;;;10.70;99.90;;;;;;4970508;28;20180;-65
2022/10/27 06:18:53;;;;;;;17.57;12.67;;;10.70;99.90;;;;;;4970077;28;20188;-65
2022/10/27 06:21:19;;;;;;;15.43;11.60;;;10.60;99.90;;;;;;4970775;28;20470;-66
2022/10/27 06:23:49;;;;;;;19.23;12.30;;;10.70;99.90;;;;;;4970531;28;20953;-66
2022/10/27 06:26:15;;;;;;;16.23;12.67;;;10.70;99.90;;;;;;4966876;28;20454;-65
2022/10/27 06:28:40;;;;;;;18.63;12.53;;;10.70;99.90;;;;;;4969579;28;20439;-65
2022/10/27 06:31:06;;;;;;;17.07;12.70;;;10.70;99.90;;;;;;4971889;28;20435;-65
2022/10/27 06:33:31;;;;;;;13.90;12.47;;;10.70;99.90;;;;;;4971935;28;20569;-65
2022/10/27 06:35:57;;;;;;;26.77;13.70;;;10.80;99.90;;;;;;4972345;28;20182;-64
2022/10/27 06:38:22;;;;;;;15.17;12.57;;;10.80;99.90;;;;;;4971586;28;20531;-65
2022/10/27 06:40:48;;;;;;;15.40;11.47;;;10.90;99.90;;;;;;4945640;28;20887;-64
2022/10/27 06:43:13;;;;;;;21.83;13.50;;;11.00;99.90;;;;;;4955915;28;20200;-65
2022/10/27 06:45:39;;;;;;;13.27;11.87;;;11.20;99.90;;;;;;4964619;28;20183;-65
2022/10/27 06:48:08;;;;;;;17.10;12.73;;;11.50;99.90;;;;;;4972207;28;20223;-65
2022/10/27 06:50:34;;;;;;;12.33;10.10;;;11.70;99.90;;;;;;4965575;28;20498;-65
2022/10/27 06:53:00;;;;;;;14.63;10.60;;;12.00;99.90;;;;;;4970733;28;20443;-64
2022/10/27 06:55:26;;;;;;;13.37;12.00;;;12.30;99.90;;;;;;4968459;28;20264;-65
2022/10/27 06:57:52;;;;;;;15.40;10.93;;;12.40;99.90;;;;;;4972016;28;20435;-65
2022/10/27 07:00:18;;;;;;;12.23;9.90;;;12.70;99.90;;;;;;4968495;28;20431;-64
2022/10/27 07:02:44;;;;;;;11.30;9.33;;;12.80;99.90;;;;;;4971594;28;20427;-65
2022/10/27 07:05:09;;;;;;;12.80;9.83;;;13.10;99.90;;;;;;4972800;28;20596;-65
2022/10/27 07:07:35;;;;;;;12.90;9.50;;;13.20;99.90;;;;;;4972712;28;20303;-65
2022/10/27 07:10:01;;;;;;;11.93;8.60;;;13.40;99.90;;;;;;4969144;28;20184;-65
2022/10/27 07:12:27;;;;;;;13.30;10.57;;;13.60;99.90;;;;;;4975391;28;20543;-65
2022/10/27 07:14:53;;;;;;;10.20;8.37;;;13.80;99.90;;;;;;4976007;28;21063;-64
2022/10/27 07:17:18;;;;;;;14.10;9.00;;;14.10;99.90;;;;;;4976416;28;20168;-64
2022/10/27 07:19:44;;;;;;;10.67;9.07;;;14.40;99.90;;;;;;4972178;28;20528;-64
2022/10/27 07:22:09;;;;;;;11.70;8.60;;;14.70;99.90;;;;;;4958878;28;20832;-64
2022/10/27 07:24:35;;;;;;;10.90;7.53;;;15.00;99.90;;;;;;4958753;28;20244;-64
2022/10/27 07:27:00;;;;;;;10.87;8.60;;;15.30;99.90;;;;;;4975854;28;20185;-65
2022/10/27 07:29:26;;;;;;;11.97;10.03;;;15.60;99.90;;;;;;4972499;28;20739;-64
2022/10/27 07:31:51;;;;;;;14.70;8.33;;;15.80;99.90;;;;;;4974945;28;20184;-65
2022/10/27 07:34:17;;;;;;;22.27;8.67;;;16.10;99.90;;;;;;4976060;28;20234;-65
2022/10/27 07:36:42;;;;;;;10.13;8.30;;;16.40;99.90;;;;;;4975389;28;20168;-65
2022/10/27 07:39:08;;;;;;;8.97;8.07;;;16.60;99.90;;;;;;4970201;28;20268;-65
2022/10/27 07:41:33;;;;;;;12.60;7.83;;;17.00;99.90;;;;;;4974720;28;20188;-65
2022/10/27 07:43:59;;;;;;;14.13;8.83;;;17.50;99.90;;;;;;4974903;28;20207;-65
2022/10/27 07:46:24;;;;;;;14.83;8.57;;;17.70;99.90;;;;;;4975665;28;20192;-65
2022/10/27 07:48:50;;;;;;;10.60;8.23;;;17.80;99.90;;;;;;4975395;28;20185;-65
2022/10/27 07:51:15;;;;;;;9.87;8.87;;;18.20;99.90;;;;;;4971362;28;20191;-65
2022/10/27 07:53:41;;;;;;;12.03;8.00;;;18.60;99.90;;;;;;4975590;28;20690;-65
2022/10/27 07:56:07;;;;;;;12.47;9.20;;;19.00;99.90;;;;;;4975033;28;20180;-65
2022/10/27 07:58:32;;;;;;;16.97;9.57;;;18.60;99.90;;;;;;4974922;28;20702;-65
2022/10/27 08:00:59;;;;;;;8.93;6.80;;;19.10;99.90;;;;;;4972044;28;20179;-65
2022/10/27 08:03:27;;;;;;;8.33;6.73;;;19.10;99.90;;;;;;4974408;28;20251;-65
2022/10/27 08:05:53;;;;;;;13.53;7.07;;;19.00;99.90;;;;;;4975296;28;20420;-65
2022/10/27 08:08:18;;;;;;;11.10;6.60;;;18.90;99.90;;;;;;4974392;28;20423;-65
2022/10/27 08:10:47;;;;;;;7.00;6.20;;;18.90;99.90;;;;;;4971934;28;20183;-65
2022/10/27 08:13:12;;;;;;;10.67;6.50;;;19.30;99.90;;;;;;4973636;28;20216;-65
2022/10/27 08:15:39;;;;;;;13.33;6.30;;;19.40;99.90;;;;;;4974228;28;20792;-65
2022/10/27 08:18:05;;;;;;;7.80;6.47;;;20.10;99.90;;;;;;4974218;28;20180;-65
2022/10/27 08:20:34;;;;;;;7.83;5.90;;;20.50;99.90;;;;;;4971497;28;20466;-65
2022/10/27 08:23:02;;;;;;;7.23;5.60;;;20.80;99.90;;;;;;4973655;28;20443;-65
2022/10/27 08:25:28;;;;;;;6.83;6.13;;;21.00;99.90;;;;;;4975089;28;20798;-65
2022/10/27 08:27:55;;;;;;;10.03;5.67;;;21.00;99.90;;;;;;4989871;28;20853;-65
2022/10/27 08:30:21;;;;;;;15.43;6.23;;;21.40;99.90;;;;;;4965309;28;20430;-65
2022/10/27 08:32:49;;;;;;;10.40;4.30;;;21.90;99.90;;;;;;4989603;28;20451;-65
2022/10/27 08:35:16;;;;;;;11.93;4.40;;;22.50;99.90;;;;;;4971535;28;20268;-65
2022/10/27 08:37:41;;;;;;;9.20;4.87;;;23.00;99.90;;;;;;4955463;28;20938;-65
2022/10/27 08:40:09;;;;;;;8.73;4.40;;;23.20;99.90;;;;;;4960698;28;20432;-65
2022/10/27 08:42:57;;;;;;;9.20;4.93;;;23.30;99.90;;;;;;4972801;28;20259;-65
2022/10/27 08:45:27;;;;;;;9.00;4.90;;;23.50;99.90;;;;;;4974061;28;20417;-65
2022/10/27 08:47:58;;;;;;;13.40;4.47;;;23.50;99.90;;;;;;4973935;28;20424;-65
2022/10/27 08:50:27;;;;;;;7.30;4.07;;;23.90;99.90;;;;;;4970898;28;20430;-65
2022/10/27 08:52:55;;;;;;;4.83;4.10;;;24.80;99.90;;;;;;4973607;28;20466;-65
2022/10/27 08:55:32;;;;;;;5.80;4.27;;;25.40;99.90;;;;;;4974284;28;20424;-65
2022/10/27 08:58:16;;;;;;;6.10;3.40;;;25.00;99.90;;;;;;4974000;28;20802;-65
2022/10/27 09:00:57;;;;;;;6.10;4.23;;;24.20;99.90;;;;;;4970739;28;20493;-65
2022/10/27 09:03:35;;;;;;;11.27;4.53;;;23.80;99.90;;;;;;4974360;28;20446;-65
2022/10/27 09:06:13;;;;;;;8.30;3.43;;;24.40;99.90;;;;;;4973866;28;20454;-65
2022/10/27 09:08:50;;;;;;;8.40;4.00;;;25.00;99.90;;;;;;4973946;28;20424;-66
2022/10/27 09:11:42;;;;;;;9.20;3.97;;;24.50;99.90;;;;;;4969634;28;20427;-66
2022/10/27 09:14:44;;;;;;;9.80;4.57;;;24.20;99.90;;;;;;4973808;28;20471;-66
2022/10/27 09:17:27;;;;;;;6.73;3.90;;;24.20;99.90;;;;;;4972255;28;20431;-66
2022/10/27 09:20:41;;;;;;;6.67;3.80;;;24.30;99.90;;;;;;4969782;28;21150;-66
2022/10/27 09:23:13;;;;;;;7.10;4.30;;;24.90;99.90;;;;;;4972660;28;20451;-65
2022/10/27 09:25:40;;;;;;;8.27;3.67;;;24.80;99.90;;;;;;4973072;28;20424;-65
2022/10/27 09:28:18;;;;;;;6.87;3.67;;;25.00;99.90;;;;;;4973709;28;20918;-66
2022/10/27 09:30:46;;;;;;;6.33;3.70;;;25.80;99.90;;;;;;4967031;28;20427;-66
2022/10/27 09:33:17;;;;;;;9.03;4.20;;;25.80;99.90;;;;;;4972176;28;20444;-65
2022/10/27 09:35:42;;;;;;;5.10;3.93;;;25.50;99.90;;;;;;4961850;28;20515;-66
2022/10/27 09:38:14;;;;;;;10.27;4.07;;;25.80;99.90;;;;;;4972920;28;20941;-66
2022/10/27 09:40:40;;;;;;;5.87;3.83;;;26.40;99.90;;;;;;4969357;28;20643;-66
2022/10/27 09:43:08;;;;;;;9.00;5.30;;;26.70;99.90;;;;;;4973503;28;20439;-66
2022/10/27 09:45:33;;;;;;;8.30;4.50;;;27.40;98.10;;;;;;4973103;28;20180;-66
2022/10/27 09:48:04;;;;;;;4.93;4.20;;;27.30;97.40;;;;;;4973066;28;20431;-66
2022/10/27 09:50:39;;;;;;;6.13;4.10;;;28.00;96.30;;;;;;4968749;28;20291;-66
2022/10/27 09:53:25;;;;;;;8.43;3.80;;;28.40;95.10;;;;;;4964900;28;20459;-65
2022/10/27 09:55:52;;;;;;;8.17;4.30;;;27.60;94.20;;;;;;4973332;28;20427;-66
2022/10/27 09:58:19;;;;;;;6.50;4.20;;;28.60;94.10;;;;;;4967383;28;20431;-65
2022/10/27 10:00:54;;;;;;;11.43;4.33;;;29.10;93.00;;;;;;4970204;28;20428;-66
2022/10/27 10:03:20;;;;;;;8.57;4.20;;;30.40;90.50;;;;;;4973366;28;20496;-66
2022/10/27 10:06:00;;;;;;;5.90;4.27;;;29.40;88.80;;;;;;4972695;28;20789;-65
2022/10/27 10:08:28;;;;;;;9.40;4.33;;;29.20;89.50;;;;;;4973140;28;20427;-65
2022/10/27 10:11:18;;;;;;;7.70;3.87;;;28.70;90.90;;;;;;4970965;28;20443;-66
2022/10/27 10:13:59;;;;;;;5.90;3.60;;;29.30;89.70;;;;;;4972540;28;20475;-65
2022/10/27 10:16:27;;;;;;;6.57;4.57;;;28.60;88.30;;;;;;4973287;28;20794;-65
2022/10/27 10:19:04;;;;;;;5.20;3.87;;;27.70;90.20;;;;;;4972005;28;20463;-65
2022/10/27 10:21:50;;;;;;;8.27;4.03;;;28.30;90.50;;;;;;4971494;28;20424;-65
2022/10/27 10:24:19;;;;;;;8.63;4.20;;;28.30;88.40;;;;;;4972822;28;20451;-65
2022/10/27 10:26:47;;;;;;;4.60;4.03;;;27.80;88.30;;;;;;4972658;28;20441;-65
2022/10/27 10:29:26;;;;;;;6.10;3.60;;;27.30;90.10;;;;;;4969795;28;20439;-65
2022/10/27 10:32:03;;;;;;;6.10;3.43;;;27.10;90.10;;;;;;4972210;28;20511;-65
2022/10/27 10:34:31;;;;;;;6.40;4.23;;;27.30;90.90;;;;;;4973008;28;20561;-65
2022/10/27 10:36:57;;;;;;;6.23;3.53;;;27.70;90.40;;;;;;4972213;28;20449;-65
2022/10/27 10:39:25;;;;;;;5.73;3.60;;;29.00;90.00;;;;;;4969885;28;20423;-65
2022/10/27 10:42:09;;;;;;;4.47;3.43;;;31.30;82.90;;;;;;4972106;28;20187;-66
2022/10/27 10:44:36;;;;;;;6.10;3.90;;;31.90;76.40;;;;;;4967368;28;20467;-66
2022/10/27 10:47:03;;;;;;;8.70;4.03;;;31.60;72.70;;;;;;4976559;28;20985;-66
2022/10/27 10:49:40;;;;;;;5.57;3.43;;;31.20;74.50;;;;;;4972165;28;20439;-65
2022/10/27 10:52:17;;;;;;;6.40;3.47;;;32.60;69.80;;;;;;4976092;28;20435;-66
2022/10/27 10:54:44;;;;;;;8.30;3.73;;;31.90;68.50;;;;;;4975481;28;20470;-65
2022/10/27 10:57:34;;;;;;;9.03;4.40;;;30.40;69.40;;;;;;4976643;28;20783;-66
2022/10/27 11:00:03;;;;;;;6.00;3.40;;;29.80;71.50;;;;;;4972308;28;20420;-65
2022/10/27 11:02:30;;;;;;;6.57;4.03;;;29.30;72.30;;;;;;4975807;28;20525;-65
2022/10/27 11:05:20;;;;;;;8.33;3.53;;;29.10;71.90;;;;;;4976368;28;20419;-66
2022/10/27 11:07:47;;;;;;;5.70;3.20;;;29.40;71.20;;;;;;4975611;28;20883;-65
2022/10/27 11:10:14;;;;;;;6.47;3.67;;;29.30;72.60;;;;;;4972654;28;21040;-66
2022/10/27 11:12:45;;;;;;;3.83;3.50;;;29.40;71.80;;;;;;4975748;28;20960;-66
2022/10/27 11:15:42;;;;;;;6.03;3.80;;;30.80;69.90;;;;;;4975778;28;20466;-66
2022/10/27 11:18:20;;;;;;;4.97;3.13;;;32.40;66.60;;;;;;4975157;28;20432;-66
2022/10/27 11:20:51;;;;;;;8.33;4.03;;;33.00;65.70;;;;;;4966605;28;20428;-66
2022/10/27 11:23:27;;;;;;;4.90;3.53;;;34.30;60.80;;;;;;4956672;28;20440;-66
2022/10/27 11:25:56;;;;;;;5.57;3.10;;;34.80;58.70;;;;;;4965556;28;20435;-67
2022/10/27 11:28:53;;;;;;;5.07;3.00;;;35.70;59.20;;;;;;4956367;29;20428;-68
2022/10/27 11:31:18;;;;;;;6.80;3.60;;;36.30;56.70;;;;;;4971612;28;20423;-67
2022/10/27 11:34:01;;;;;;;4.30;3.40;;;35.80;56.10;;;;;;4975137;28;20474;-66
2022/10/27 11:36:40;;;;;;;7.30;3.53;;;35.50;56.30;;;;;;4975601;28;20172;-68
2022/10/27 11:39:11;;;;;;;5.00;3.10;;;35.60;55.50;;;;;;4973349;28;20497;-67
2022/10/27 11:41:45;;;;;;;6.97;4.10;;;35.70;56.10;;;;;;4974978;28;20428;-68
2022/10/27 11:44:33;;;;;;;5.23;2.77;;;37.70;63.00;;;;;;4974890;28;20450;-64
2022/10/27 11:47:09;;;;;;;6.50;3.57;;;39.20;58.90;;;;;;4975660;28;20420;-65
2022/10/27 11:49:42;;;;;;;6.50;3.70;;;38.80;57.00;;;;;;4972622;28;20501;-65
2022/10/27 11:52:20;;;;;;;12.47;7.33;;;38.90;55.60;;;;;;4974294;28;20416;-66
2022/10/27 11:54:46;;;;;;;7.90;3.27;;;39.90;54.70;;;;;;4975483;28;20467;-64
2022/10/27 11:57:17;;;;;;;4.20;3.00;;;38.20;54.50;;;;;;4974484;28;20423;-65
2022/10/27 11:59:49;;;;;;;4.60;3.10;;;39.20;54.20;;;;;;4972513;28;20431;-64
2022/10/27 12:02:23;;;;;;;10.10;3.60;;;39.90;53.40;;;;;;4973373;28;20501;-67
2022/10/27 12:04:55;;;;;;;6.00;3.10;;;38.20;53.50;;;;;;4972826;28;20443;-67
2022/10/27 12:07:35;;;;;;;2.60;2.40;;;39.30;53.90;;;;;;4968594;28;20432;-68
2022/10/27 12:10:48;;;;;;;4.87;3.07;;;39.90;51.80;;;;;;4968890;28;20528;-66
2022/10/27 12:13:40;;;;;;;15.17;10.17;;;38.40;52.00;;;;;;4934201;29;20970;-67
2022/10/27 12:16:13;;;;;;;6.90;3.00;;;38.10;53.00;;;;;;4970188;28;20459;-67
2022/10/27 12:18:48;;;;;;;5.40;3.70;;;39.50;51.40;;;;;;4974938;28;20467;-66
2022/10/27 12:21:23;;;;;;;6.90;3.73;;;40.30;50.50;;;;;;4971176;28;20475;-66
2022/10/27 12:24:12;;;;;;;8.53;3.40;;;41.00;49.60;;;;;;4975240;28;20466;-67
2022/10/27 12:26:46;;;;;;;4.97;3.13;;;38.60;49.40;;;;;;4974622;28;20458;-67
2022/10/27 12:29:14;;;;;;;5.47;2.70;;;37.90;50.40;;;;;;4956368;28;20424;-67
2022/10/27 12:31:54;;;;;;;6.53;3.67;;;34.80;51.90;;;;;;4973818;28;20468;-67
2022/10/27 12:34:21;;;;;;;5.20;3.17;;;36.10;52.80;;;;;;4959183;28;20452;-67
2022/10/27 12:37:31;;;;;;;4.63;3.07;;;37.20;52.30;;;;;;4955449;28;20428;-68
2022/10/27 12:40:13;;;;;;;6.40;3.50;;;37.80;50.80;;;;;;4962205;28;20439;-67
2022/10/27 12:42:43;;;;;;;7.17;3.13;;;38.20;50.60;;;;;;4973831;28;20886;-67
2022/10/27 12:45:37;;;;;;;4.33;2.80;;;38.10;50.10;;;;;;4974236;28;20464;-66
2022/10/27 12:48:32;;;;;;;3.50;3.13;;;39.40;49.30;;;;;;4974544;28;20435;-66
2022/10/27 12:51:07;;;;;;;5.03;3.37;;;38.90;48.20;;;;;;4966755;28;20518;-67
2022/10/27 12:53:57;;;;;;;5.50;2.87;;;38.70;48.40;;;;;;4974531;28;20450;-66
2022/10/27 12:56:50;;;;;;;5.70;2.97;;;38.10;48.10;;;;;;4973850;28;20494;-66